sensor_id;sensor_type;location;lat;lon;timestamp;temperature;humidity
18067;DHT22;9158;51.528;7.192;2022-12-11T00:00:00;0.10;99.90
18067;DHT22;9158;51.528;7.192;2022-12-11T00:00:31;0.10;99.90
18067;DHT22;9158;51.528;7.192;2022-12-11T00:01:08;0.10;99.90
18067;DHT22;9158;51.528;7.192;2022-12-11T00:01:39;0.10;99.90
18067;DHT22;9158;51.528;7.192;2022-12-11T00:02:10;0.10;99.90
18067;DHT22;9158;51.528;7.192;2022-12-11T00:02:42;0.10;99.90
18067;DHT22;9158;51.528;7.192;2022-12-11T00:03:13;0.10;99.90
18067;DHT22;9158;51.528;7.192;2022-12-11T00:03:44;0.10;99.90
18067;DHT22;9158;51.528;7.192;2022-12-11T00:04:16;0.10;99.90
18067;DHT22;9158;51.528;7.192;2022-12-11T00:04:48;0.00;99.90
18067;DHT22;9158;51.528;7.192;2022-12-11T00:05:18;0.00;99.90
18067;DHT22;9158;51.528;7.192;2022-12-11T00:05:50;0.00;99.90
18067;DHT22;9158;51.528;7.192;2022-12-11T00:06:22;0.00;99.90
18067;DHT22;9158;51.528;7.192;2022-12-11T00:06:53;0.10;99.90
18067;DHT22;9158;51.528;7.192;2022-12-11T00:07:24;0.00;99.90
18067;DHT22;9158;51.528;7.192;2022-12-11T00:07:56;0.00;99.90
18067;DHT22;9158;51.528;7.192;2022-12-11T00:08:29;0.00;99.90
18067;DHT22;9158;51.528;7.192;2022-12-11T00:09:00;0.00;99.90
18067;DHT22;9158;51.528;7.192;2022-12-11T00:09:31;0.00;99.90
18067;DHT22;9158;51.528;7.192;2022-12-11T00:10:05;0.00;99.90
18067;DHT22;9158;51.528;7.192;2022-12-11T00:10:36;0.00;99.90
18067;DHT22;9158;51.528;7.192;2022-12-11T00:11:07;0.00;99.90
18067;DHT22;9158;51.528;7.192;2022-12-11T00:11:39;0.00;99.90
18067;DHT22;9158;51.528;7.192;2022-12-11T00:12:10;0.00;99.90
18067;DHT22;9158;51.528;7.192;2022-12-11T00:12:41;0.00;99.90
18067;DHT22;9158;51.528;7.192;2022-12-11T00:13:13;0.00;99.90
18067;DHT22;9158;51.528;7.192;2022-12-11T00:13:44;0.10;99.90
18067;DHT22;9158;51.528;7.192;2022-12-11T00:14:15;0.10;99.90
18067;DHT22;9158;51.528;7.192;2022-12-11T00:14:47;0.10;99.90
18067;DHT22;9158;51.528;7.192;2022-12-11T00:15:18;0.00;99.90
18067;DHT22;9158;51.528;7.192;2022-12-11T00:15:49;0.10;99.90
18067;DHT22;9158;51.528;7.192;2022-12-11T00:16:20;0.10;99.90
18067;DHT22;9158;51.528;7.192;2022-12-11T00:16:52;0.10;99.90
18067;DHT22;9158;51.528;7.192;2022-12-11T00:17:23;0.10;99.90
18067;DHT22;9158;51.528;7.192;2022-12-11T00:17:54;0.00;99.90
18067;DHT22;9158;51.528;7.192;2022-12-11T00:18:26;0.10;99.90
18067;DHT22;9158;51.528;7.192;2022-12-11T00:18:57;0.10;99.90
18067;DHT22;9158;51.528;7.192;2022-12-11T00:19:28;0.10;99.90
18067;DHT22;9158;51.528;7.192;2022-12-11T00:20:00;0.10;99.90
18067;DHT22;9158;51.528;7.192;2022-12-11T00:20:31;0.10;99.90
18067;DHT22;9158;51.528;7.192;2022-12-11T00:21:03;0.10;99.90
18067;DHT22;9158;51.528;7.192;2022-12-11T00:21:35;0.10;99.90
18067;DHT22;9158;51.528;7.192;2022-12-11T00:22:06;0.10;99.90
18067;DHT22;9158;51.528;7.192;2022-12-11T00:22:38;0.10;99.90
18067;DHT22;9158;51.528;7.192;2022-12-11T00:23:09;0.20;99.90
18067;DHT22;9158;51.528;7.192;2022-12-11T00:23:41;0.20;99.90
18067;DHT22;9158;51.528;7.192;2022-12-11T00:24:13;0.20;99.90
18067;DHT22;9158;51.528;7.192;2022-12-11T00:24:44;0.20;99.90
18067;DHT22;9158;51.528;7.192;2022-12-11T00:25:15;0.20;99.90
18067;DHT22;9158;51.528;7.192;2022-12-11T00:25:47;0.20;99.90
18067;DHT22;9158;51.528;7.192;2022-12-11T00:26:19;0.30;99.90
18067;DHT22;9158;51.528;7.192;2022-12-11T00:26:50;0.30;99.90
18067;DHT22;9158;51.528;7.192;2022-12-11T00:27:22;0.30;99.90
18067;DHT22;9158;51.528;7.192;2022-12-11T00:27:53;0.30;99.90
18067;DHT22;9158;51.528;7.192;2022-12-11T00:28:24;0.30;99.90
18067;DHT22;9158;51.528;7.192;2022-12-11T00:28:56;0.30;99.90
18067;DHT22;9158;51.528;7.192;2022-12-11T00:29:27;0.30;99.90
18067;DHT22;9158;51.528;7.192;2022-12-11T00:29:59;0.30;99.90
18067;DHT22;9158;51.528;7.192;2022-12-11T00:30:30;0.40;99.90
18067;DHT22;9158;51.528;7.192;2022-12-11T00:31:03;0.40;99.90
18067;DHT22;9158;51.528;7.192;2022-12-11T00:31:35;0.30;99.90
18067;DHT22;9158;51.528;7.192;2022-12-11T00:32:06;0.30;99.90
18067;DHT22;9158;51.528;7.192;2022-12-11T00:32:37;0.30;99.90
18067;DHT22;9158;51.528;7.192;2022-12-11T00:33:10;0.30;99.90
18067;DHT22;9158;51.528;7.192;2022-12-11T00:33:41;0.30;99.90
18067;DHT22;9158;51.528;7.192;2022-12-11T00:34:12;0.30;99.90
18067;DHT22;9158;51.528;7.192;2022-12-11T00:34:44;0.30;99.90
18067;DHT22;9158;51.528;7.192;2022-12-11T00:35:15;0.30;99.90
18067;DHT22;9158;51.528;7.192;2022-12-11T00:35:46;0.30;99.90
18067;DHT22;9158;51.528;7.192;2022-12-11T00:36:19;0.30;99.90
18067;DHT22;9158;51.528;7.192;2022-12-11T00:36:51;0.30;99.90
18067;DHT22;9158;51.528;7.192;2022-12-11T00:37:22;0.30;99.90
18067;DHT22;9158;51.528;7.192;2022-12-11T00:37:53;0.30;99.90
18067;DHT22;9158;51.528;7.192;2022-12-11T00:38:27;0.30;99.90
18067;DHT22;9158;51.528;7.192;2022-12-11T00:39:00;0.30;99.90
18067;DHT22;9158;51.528;7.192;2022-12-11T00:39:32;0.30;99.90
18067;DHT22;9158;51.528;7.192;2022-12-11T00:40:04;0.30;99.90
18067;DHT22;9158;51.528;7.192;2022-12-11T00:40:35;0.30;99.90
18067;DHT22;9158;51.528;7.192;2022-12-11T00:41:08;0.30;99.90
18067;DHT22;9158;51.528;7.192;2022-12-11T00:41:39;0.30;99.90
18067;DHT22;9158;51.528;7.192;2022-12-11T00:42:10;0.30;99.90
18067;DHT22;9158;51.528;7.192;2022-12-11T00:42:42;0.30;99.90
18067;DHT22;9158;51.528;7.192;2022-12-11T00:43:13;0.30;99.90
18067;DHT22;9158;51.528;7.192;2022-12-11T00:43:44;0.30;99.90
18067;DHT22;9158;51.528;7.192;2022-12-11T00:44:16;0.30;99.90
18067;DHT22;9158;51.528;7.192;2022-12-11T00:44:47;0.30;99.90
18067;DHT22;9158;51.528;7.192;2022-12-11T00:45:18;0.30;99.90
18067;DHT22;9158;51.528;7.192;2022-12-11T00:45:49;0.30;99.90
18067;DHT22;9158;51.528;7.192;2022-12-11T00:46:21;0.30;99.90
18067;DHT22;9158;51.528;7.192;2022-12-11T00:46:52;0.30;99.90
18067;DHT22;9158;51.528;7.192;2022-12-11T00:47:23;0.30;99.90
18067;DHT22;9158;51.528;7.192;2022-12-11T00:47:55;0.30;99.90
18067;DHT22;9158;51.528;7.192;2022-12-11T00:48:26;0.30;99.90
18067;DHT22;9158;51.528;7.192;2022-12-11T00:48:57;0.30;99.90
18067;DHT22;9158;51.528;7.192;2022-12-11T00:49:29;0.30;99.90
18067;DHT22;9158;51.528;7.192;2022-12-11T00:49:59;0.30;99.90
18067;DHT22;9158;51.528;7.192;2022-12-11T00:50:32;0.30;99.90
18067;DHT22;9158;51.528;7.192;2022-12-11T00:51:04;0.30;99.90
18067;DHT22;9158;51.528;7.192;2022-12-11T00:51:36;0.30;99.90
18067;DHT22;9158;51.528;7.192;2022-12-11T00:52:07;0.30;99.90
18067;DHT22;9158;51.528;7.192;2022-12-11T00:52:39;0.30;99.90
18067;DHT22;9158;51.528;7.192;2022-12-11T00:53:11;0.30;99.90
18067;DHT22;9158;51.528;7.192;2022-12-11T00:53:42;0.30;99.90
18067;DHT22;9158;51.528;7.192;2022-12-11T00:54:14;0.30;99.90
18067;DHT22;9158;51.528;7.192;2022-12-11T00:54:46;0.30;99.90
18067;DHT22;9158;51.528;7.192;2022-12-11T00:55:17;0.30;99.90
18067;DHT22;9158;51.528;7.192;2022-12-11T00:55:48;0.30;99.90
18067;DHT22;9158;51.528;7.192;2022-12-11T00:56:22;0.30;99.90
18067;DHT22;9158;51.528;7.192;2022-12-11T00:56:54;0.30;99.90
18067;DHT22;9158;51.528;7.192;2022-12-11T00:57:26;0.30;99.90
18067;DHT22;9158;51.528;7.192;2022-12-11T00:57:57;0.30;99.90
18067;DHT22;9158;51.528;7.192;2022-12-11T00:58:28;0.30;99.90
18067;DHT22;9158;51.528;7.192;2022-12-11T00:59:00;0.30;99.90
18067;DHT22;9158;51.528;7.192;2022-12-11T00:59:31;0.30;99.90
18067;DHT22;9158;51.528;7.192;2022-12-11T01:00:03;0.30;99.90
18067;DHT22;9158;51.528;7.192;2022-12-11T01:00:38;0.40;99.90
18067;DHT22;9158;51.528;7.192;2022-12-11T01:01:12;0.40;99.90
18067;DHT22;9158;51.528;7.192;2022-12-11T01:01:43;0.40;99.90
18067;DHT22;9158;51.528;7.192;2022-12-11T01:02:15;0.40;99.90
18067;DHT22;9158;51.528;7.192;2022-12-11T01:02:46;0.40;99.90
18067;DHT22;9158;51.528;7.192;2022-12-11T01:03:17;0.40;99.90
18067;DHT22;9158;51.528;7.192;2022-12-11T01:03:49;0.40;99.90
18067;DHT22;9158;51.528;7.192;2022-12-11T01:04:20;0.40;99.90
18067;DHT22;9158;51.528;7.192;2022-12-11T01:04:53;0.40;99.90
18067;DHT22;9158;51.528;7.192;2022-12-11T01:05:24;0.40;99.90
18067;DHT22;9158;51.528;7.192;2022-12-11T01:05:55;0.40;99.90
18067;DHT22;9158;51.528;7.192;2022-12-11T01:06:28;0.40;99.90
18067;DHT22;9158;51.528;7.192;2022-12-11T01:06:59;0.40;99.90
18067;DHT22;9158;51.528;7.192;2022-12-11T01:07:30;0.40;99.90
18067;DHT22;9158;51.528;7.192;2022-12-11T01:08:01;0.40;99.90
18067;DHT22;9158;51.528;7.192;2022-12-11T01:08:33;0.40;99.90
18067;DHT22;9158;51.528;7.192;2022-12-11T01:09:05;0.40;99.90
18067;DHT22;9158;51.528;7.192;2022-12-11T01:09:56;0.40;99.90
18067;DHT22;9158;51.528;7.192;2022-12-11T01:10:45;0.40;99.90
18067;DHT22;9158;51.528;7.192;2022-12-11T01:11:16;0.40;99.90
18067;DHT22;9158;51.528;7.192;2022-12-11T01:11:47;0.40;99.90
18067;DHT22;9158;51.528;7.192;2022-12-11T01:12:18;0.30;99.90
18067;DHT22;9158;51.528;7.192;2022-12-11T01:12:51;0.30;99.90
18067;DHT22;9158;51.528;7.192;2022-12-11T01:13:22;0.30;99.90
18067;DHT22;9158;51.528;7.192;2022-12-11T01:13:53;0.30;99.90
18067;DHT22;9158;51.528;7.192;2022-12-11T01:14:25;0.30;99.90
18067;DHT22;9158;51.528;7.192;2022-12-11T01:14:56;0.30;99.90
18067;DHT22;9158;51.528;7.192;2022-12-11T01:15:29;0.30;99.90
18067;DHT22;9158;51.528;7.192;2022-12-11T01:16:05;0.40;99.90
18067;DHT22;9158;51.528;7.192;2022-12-11T01:16:36;0.40;99.90
18067;DHT22;9158;51.528;7.192;2022-12-11T01:17:08;0.40;99.90
18067;DHT22;9158;51.528;7.192;2022-12-11T01:17:39;0.40;99.90
18067;DHT22;9158;51.528;7.192;2022-12-11T01:18:12;0.30;99.90
18067;DHT22;9158;51.528;7.192;2022-12-11T01:18:44;0.40;99.90
18067;DHT22;9158;51.528;7.192;2022-12-11T01:19:15;0.40;99.90
18067;DHT22;9158;51.528;7.192;2022-12-11T01:19:46;0.40;99.90
18067;DHT22;9158;51.528;7.192;2022-12-11T01:20:19;0.40;99.90
18067;DHT22;9158;51.528;7.192;2022-12-11T01:20:50;0.40;99.90
18067;DHT22;9158;51.528;7.192;2022-12-11T01:21:22;0.40;99.90
18067;DHT22;9158;51.528;7.192;2022-12-11T01:21:54;0.40;99.90
18067;DHT22;9158;51.528;7.192;2022-12-11T01:22:25;0.40;99.90
18067;DHT22;9158;51.528;7.192;2022-12-11T01:22:59;0.40;99.90
18067;DHT22;9158;51.528;7.192;2022-12-11T01:23:31;0.40;99.90
18067;DHT22;9158;51.528;7.192;2022-12-11T01:24:02;0.40;99.90
18067;DHT22;9158;51.528;7.192;2022-12-11T01:24:33;0.40;99.90
18067;DHT22;9158;51.528;7.192;2022-12-11T01:25:07;0.40;99.90
18067;DHT22;9158;51.528;7.192;2022-12-11T01:25:39;0.40;99.90
18067;DHT22;9158;51.528;7.192;2022-12-11T01:26:13;0.40;99.90
18067;DHT22;9158;51.528;7.192;2022-12-11T01:26:45;0.40;99.90
18067;DHT22;9158;51.528;7.192;2022-12-11T01:27:16;0.40;99.90
18067;DHT22;9158;51.528;7.192;2022-12-11T01:27:49;0.40;99.90
18067;DHT22;9158;51.528;7.192;2022-12-11T01:28:22;0.40;99.90
18067;DHT22;9158;51.528;7.192;2022-12-11T01:28:53;0.40;99.90
18067;DHT22;9158;51.528;7.192;2022-12-11T01:29:24;0.40;99.90
18067;DHT22;9158;51.528;7.192;2022-12-11T01:29:56;0.40;99.90
18067;DHT22;9158;51.528;7.192;2022-12-11T01:30:26;0.40;99.90
18067;DHT22;9158;51.528;7.192;2022-12-11T01:30:57;0.40;99.90
18067;DHT22;9158;51.528;7.192;2022-12-11T01:31:29;0.40;99.90
18067;DHT22;9158;51.528;7.192;2022-12-11T01:32:00;0.40;99.90
18067;DHT22;9158;51.528;7.192;2022-12-11T01:32:31;0.40;99.90
18067;DHT22;9158;51.528;7.192;2022-12-11T01:33:03;0.40;99.90
18067;DHT22;9158;51.528;7.192;2022-12-11T01:33:35;0.40;99.90
18067;DHT22;9158;51.528;7.192;2022-12-11T01:34:06;0.40;99.90
18067;DHT22;9158;51.528;7.192;2022-12-11T01:34:38;0.40;99.90
18067;DHT22;9158;51.528;7.192;2022-12-11T01:35:10;0.40;99.90
18067;DHT22;9158;51.528;7.192;2022-12-11T01:35:41;0.40;99.90
18067;DHT22;9158;51.528;7.192;2022-12-11T01:36:15;0.40;99.90
18067;DHT22;9158;51.528;7.192;2022-12-11T01:36:47;0.40;99.90
18067;DHT22;9158;51.528;7.192;2022-12-11T01:37:18;0.40;99.90
18067;DHT22;9158;51.528;7.192;2022-12-11T01:37:50;0.40;99.90
18067;DHT22;9158;51.528;7.192;2022-12-11T01:38:22;0.40;99.90
18067;DHT22;9158;51.528;7.192;2022-12-11T01:38:52;0.40;99.90
18067;DHT22;9158;51.528;7.192;2022-12-11T01:39:24;0.40;99.90
18067;DHT22;9158;51.528;7.192;2022-12-11T01:39:56;0.40;99.90
18067;DHT22;9158;51.528;7.192;2022-12-11T01:40:28;0.40;99.90
18067;DHT22;9158;51.528;7.192;2022-12-11T01:40:59;0.50;99.90
18067;DHT22;9158;51.528;7.192;2022-12-11T01:41:31;0.50;99.90
18067;DHT22;9158;51.528;7.192;2022-12-11T01:42:02;0.50;99.90
18067;DHT22;9158;51.528;7.192;2022-12-11T01:42:34;0.50;99.90
18067;DHT22;9158;51.528;7.192;2022-12-11T01:43:09;0.50;99.90
18067;DHT22;9158;51.528;7.192;2022-12-11T01:44:01;0.50;99.90
18067;DHT22;9158;51.528;7.192;2022-12-11T01:45:55;0.50;99.90
18067;DHT22;9158;51.528;7.192;2022-12-11T01:46:28;0.50;99.90
18067;DHT22;9158;51.528;7.192;2022-12-11T01:46:59;0.50;99.90
18067;DHT22;9158;51.528;7.192;2022-12-11T01:47:31;0.50;99.90
18067;DHT22;9158;51.528;7.192;2022-12-11T01:48:05;0.50;99.90
18067;DHT22;9158;51.528;7.192;2022-12-11T01:48:38;0.60;99.90
18067;DHT22;9158;51.528;7.192;2022-12-11T01:49:12;0.60;99.90
18067;DHT22;9158;51.528;7.192;2022-12-11T01:49:45;0.60;99.90
18067;DHT22;9158;51.528;7.192;2022-12-11T01:50:17;0.50;99.90
18067;DHT22;9158;51.528;7.192;2022-12-11T01:50:50;0.50;99.90
18067;DHT22;9158;51.528;7.192;2022-12-11T01:51:22;0.60;99.90
18067;DHT22;9158;51.528;7.192;2022-12-11T01:51:57;0.60;99.90
18067;DHT22;9158;51.528;7.192;2022-12-11T01:52:28;0.60;99.90
18067;DHT22;9158;51.528;7.192;2022-12-11T01:53:00;0.60;99.90
18067;DHT22;9158;51.528;7.192;2022-12-11T01:53:36;0.60;99.90
18067;DHT22;9158;51.528;7.192;2022-12-11T01:54:11;0.60;99.90
18067;DHT22;9158;51.528;7.192;2022-12-11T01:54:42;0.60;99.90
18067;DHT22;9158;51.528;7.192;2022-12-11T01:55:15;0.70;99.90
18067;DHT22;9158;51.528;7.192;2022-12-11T01:55:50;0.70;99.90
18067;DHT22;9158;51.528;7.192;2022-12-11T01:56:23;0.70;99.90
18067;DHT22;9158;51.528;7.192;2022-12-11T01:56:58;0.70;99.90
18067;DHT22;9158;51.528;7.192;2022-12-11T01:57:30;0.60;99.90
18067;DHT22;9158;51.528;7.192;2022-12-11T01:58:01;0.60;99.90
18067;DHT22;9158;51.528;7.192;2022-12-11T01:58:38;0.60;99.90
18067;DHT22;9158;51.528;7.192;2022-12-11T01:59:10;0.60;99.90
18067;DHT22;9158;51.528;7.192;2022-12-11T01:59:44;0.60;99.90
18067;DHT22;9158;51.528;7.192;2022-12-11T02:00:17;0.60;99.90
18067;DHT22;9158;51.528;7.192;2022-12-11T02:00:48;0.60;99.90
18067;DHT22;9158;51.528;7.192;2022-12-11T02:01:23;0.60;99.90
18067;DHT22;9158;51.528;7.192;2022-12-11T02:02:01;0.60;99.90
18067;DHT22;9158;51.528;7.192;2022-12-11T02:02:34;0.60;99.90
18067;DHT22;9158;51.528;7.192;2022-12-11T02:03:05;0.60;99.90
18067;DHT22;9158;51.528;7.192;2022-12-11T02:03:37;0.60;99.90
18067;DHT22;9158;51.528;7.192;2022-12-11T02:04:08;0.60;99.90
18067;DHT22;9158;51.528;7.192;2022-12-11T02:04:41;0.70;99.90
18067;DHT22;9158;51.528;7.192;2022-12-11T02:05:14;0.70;99.90
18067;DHT22;9158;51.528;7.192;2022-12-11T02:05:45;0.70;99.90
18067;DHT22;9158;51.528;7.192;2022-12-11T02:06:36;0.70;99.90
18067;DHT22;9158;51.528;7.192;2022-12-11T02:07:09;0.60;99.90
18067;DHT22;9158;51.528;7.192;2022-12-11T02:07:42;0.60;99.90
18067;DHT22;9158;51.528;7.192;2022-12-11T02:08:15;0.60;99.90
18067;DHT22;9158;51.528;7.192;2022-12-11T02:08:47;0.60;99.90
18067;DHT22;9158;51.528;7.192;2022-12-11T02:09:20;0.60;99.90
18067;DHT22;9158;51.528;7.192;2022-12-11T02:09:52;0.60;99.90
18067;DHT22;9158;51.528;7.192;2022-12-11T02:10:24;0.60;99.90
18067;DHT22;9158;51.528;7.192;2022-12-11T02:11:06;0.60;99.90
18067;DHT22;9158;51.528;7.192;2022-12-11T02:11:52;0.50;99.90
18067;DHT22;9158;51.528;7.192;2022-12-11T02:12:37;0.60;99.90
18067;DHT22;9158;51.528;7.192;2022-12-11T02:13:13;0.50;99.90
18067;DHT22;9158;51.528;7.192;2022-12-11T02:13:52;0.50;99.90
18067;DHT22;9158;51.528;7.192;2022-12-11T02:14:29;0.50;99.90
18067;DHT22;9158;51.528;7.192;2022-12-11T02:15:07;0.50;99.90
18067;DHT22;9158;51.528;7.192;2022-12-11T02:15:49;0.50;99.90
18067;DHT22;9158;51.528;7.192;2022-12-11T02:16:27;0.50;99.90
18067;DHT22;9158;51.528;7.192;2022-12-11T02:17:04;0.50;99.90
18067;DHT22;9158;51.528;7.192;2022-12-11T02:17:40;0.60;99.90
18067;DHT22;9158;51.528;7.192;2022-12-11T02:18:16;0.60;99.90
18067;DHT22;9158;51.528;7.192;2022-12-11T02:18:56;0.60;99.90
18067;DHT22;9158;51.528;7.192;2022-12-11T02:19:45;0.60;99.90
18067;DHT22;9158;51.528;7.192;2022-12-11T02:20:22;0.60;99.90
18067;DHT22;9158;51.528;7.192;2022-12-11T02:20:59;0.60;99.90
18067;DHT22;9158;51.528;7.192;2022-12-11T02:21:38;0.60;99.90
18067;DHT22;9158;51.528;7.192;2022-12-11T02:22:14;0.60;99.90
18067;DHT22;9158;51.528;7.192;2022-12-11T02:23:07;0.60;99.90
18067;DHT22;9158;51.528;7.192;2022-12-11T02:24:48;0.60;99.90
18067;DHT22;9158;51.528;7.192;2022-12-11T02:25:27;0.60;99.90
18067;DHT22;9158;51.528;7.192;2022-12-11T02:26:11;0.60;99.90
18067;DHT22;9158;51.528;7.192;2022-12-11T02:27:27;0.60;99.90
18067;DHT22;9158;51.528;7.192;2022-12-11T02:28:11;0.60;99.90
18067;DHT22;9158;51.528;7.192;2022-12-11T02:28:49;0.60;99.90
18067;DHT22;9158;51.528;7.192;2022-12-11T02:29:28;0.60;99.90
18067;DHT22;9158;51.528;7.192;2022-12-11T02:30:03;0.70;99.90
18067;DHT22;9158;51.528;7.192;2022-12-11T02:30:36;0.70;99.90
18067;DHT22;9158;51.528;7.192;2022-12-11T02:31:12;0.70;99.90
18067;DHT22;9158;51.528;7.192;2022-12-11T02:31:48;0.70;99.90
18067;DHT22;9158;51.528;7.192;2022-12-11T02:32:24;0.70;99.90
18067;DHT22;9158;51.528;7.192;2022-12-11T02:32:57;0.70;99.90
18067;DHT22;9158;51.528;7.192;2022-12-11T02:33:33;0.70;99.90
18067;DHT22;9158;51.528;7.192;2022-12-11T02:34:11;0.70;99.90
18067;DHT22;9158;51.528;7.192;2022-12-11T02:34:46;0.70;99.90
18067;DHT22;9158;51.528;7.192;2022-12-11T02:35:21;0.70;99.90
18067;DHT22;9158;51.528;7.192;2022-12-11T02:35:54;0.70;99.90
18067;DHT22;9158;51.528;7.192;2022-12-11T02:36:30;0.70;99.90
18067;DHT22;9158;51.528;7.192;2022-12-11T02:37:05;0.70;99.90
18067;DHT22;9158;51.528;7.192;2022-12-11T02:37:41;0.70;99.90
18067;DHT22;9158;51.528;7.192;2022-12-11T02:38:17;0.70;99.90
18067;DHT22;9158;51.528;7.192;2022-12-11T02:38:51;0.60;99.90
18067;DHT22;9158;51.528;7.192;2022-12-11T02:39:24;0.70;99.90
18067;DHT22;9158;51.528;7.192;2022-12-11T02:39:57;0.60;99.90
18067;DHT22;9158;51.528;7.192;2022-12-11T02:40:30;0.70;99.90
18067;DHT22;9158;51.528;7.192;2022-12-11T02:41:04;0.70;99.90
18067;DHT22;9158;51.528;7.192;2022-12-11T02:41:38;0.70;99.90
18067;DHT22;9158;51.528;7.192;2022-12-11T02:42:11;0.70;99.90
18067;DHT22;9158;51.528;7.192;2022-12-11T02:42:47;0.70;99.90
18067;DHT22;9158;51.528;7.192;2022-12-11T02:43:21;0.70;99.90
18067;DHT22;9158;51.528;7.192;2022-12-11T02:43:54;0.70;99.90
18067;DHT22;9158;51.528;7.192;2022-12-11T02:44:29;0.70;99.90
18067;DHT22;9158;51.528;7.192;2022-12-11T02:45:04;0.70;99.90
18067;DHT22;9158;51.528;7.192;2022-12-11T02:45:38;0.70;99.90
18067;DHT22;9158;51.528;7.192;2022-12-11T02:46:11;0.70;99.90
18067;DHT22;9158;51.528;7.192;2022-12-11T02:46:44;0.70;99.90
18067;DHT22;9158;51.528;7.192;2022-12-11T02:47:16;0.70;99.90
18067;DHT22;9158;51.528;7.192;2022-12-11T02:47:49;0.70;99.90
18067;DHT22;9158;51.528;7.192;2022-12-11T02:48:22;0.70;99.90
18067;DHT22;9158;51.528;7.192;2022-12-11T02:48:54;0.70;99.90
18067;DHT22;9158;51.528;7.192;2022-12-11T02:49:27;0.70;99.90
18067;DHT22;9158;51.528;7.192;2022-12-11T02:50:00;0.70;99.90
18067;DHT22;9158;51.528;7.192;2022-12-11T02:50:32;0.70;99.90
18067;DHT22;9158;51.528;7.192;2022-12-11T02:51:08;0.70;99.90
18067;DHT22;9158;51.528;7.192;2022-12-11T02:51:41;0.70;99.90
18067;DHT22;9158;51.528;7.192;2022-12-11T02:52:13;0.70;99.90
18067;DHT22;9158;51.528;7.192;2022-12-11T02:52:50;0.70;99.90
18067;DHT22;9158;51.528;7.192;2022-12-11T02:53:27;0.70;99.90
18067;DHT22;9158;51.528;7.192;2022-12-11T02:54:01;0.70;99.90
18067;DHT22;9158;51.528;7.192;2022-12-11T02:54:35;0.70;99.90
18067;DHT22;9158;51.528;7.192;2022-12-11T02:55:08;0.70;99.90
18067;DHT22;9158;51.528;7.192;2022-12-11T02:55:41;0.70;99.90
18067;DHT22;9158;51.528;7.192;2022-12-11T02:56:18;0.70;99.90
18067;DHT22;9158;51.528;7.192;2022-12-11T02:56:53;0.70;99.90
18067;DHT22;9158;51.528;7.192;2022-12-11T02:57:32;0.70;99.90
18067;DHT22;9158;51.528;7.192;2022-12-11T02:58:08;0.70;99.90
18067;DHT22;9158;51.528;7.192;2022-12-11T02:59:05;0.70;99.90
18067;DHT22;9158;51.528;7.192;2022-12-11T02:59:41;0.70;99.90
18067;DHT22;9158;51.528;7.192;2022-12-11T03:00:14;0.70;99.90
18067;DHT22;9158;51.528;7.192;2022-12-11T03:00:46;0.70;99.90
18067;DHT22;9158;51.528;7.192;2022-12-11T03:01:18;0.60;99.90
18067;DHT22;9158;51.528;7.192;2022-12-11T03:01:49;0.70;99.90
18067;DHT22;9158;51.528;7.192;2022-12-11T03:02:20;0.60;99.90
18067;DHT22;9158;51.528;7.192;2022-12-11T03:02:52;0.70;99.90
18067;DHT22;9158;51.528;7.192;2022-12-11T03:03:23;0.70;99.90
18067;DHT22;9158;51.528;7.192;2022-12-11T03:03:55;0.70;99.90
18067;DHT22;9158;51.528;7.192;2022-12-11T03:04:27;0.70;99.90
18067;DHT22;9158;51.528;7.192;2022-12-11T03:04:59;0.70;99.90
18067;DHT22;9158;51.528;7.192;2022-12-11T03:05:30;0.70;99.90
18067;DHT22;9158;51.528;7.192;2022-12-11T03:06:02;0.70;99.90
18067;DHT22;9158;51.528;7.192;2022-12-11T03:06:36;0.70;99.90
18067;DHT22;9158;51.528;7.192;2022-12-11T03:07:10;0.70;99.90
18067;DHT22;9158;51.528;7.192;2022-12-11T03:07:45;0.70;99.90
18067;DHT22;9158;51.528;7.192;2022-12-11T03:08:16;0.70;99.90
18067;DHT22;9158;51.528;7.192;2022-12-11T03:08:48;0.70;99.90
18067;DHT22;9158;51.528;7.192;2022-12-11T03:09:21;0.70;99.90
18067;DHT22;9158;51.528;7.192;2022-12-11T03:09:52;0.70;99.90
18067;DHT22;9158;51.528;7.192;2022-12-11T03:10:23;0.70;99.90
18067;DHT22;9158;51.528;7.192;2022-12-11T03:10:55;0.60;99.90
18067;DHT22;9158;51.528;7.192;2022-12-11T03:11:26;0.70;99.90
18067;DHT22;9158;51.528;7.192;2022-12-11T03:11:57;0.70;99.90
18067;DHT22;9158;51.528;7.192;2022-12-11T03:12:30;0.60;99.90
18067;DHT22;9158;51.528;7.192;2022-12-11T03:13:03;0.60;99.90
18067;DHT22;9158;51.528;7.192;2022-12-11T03:13:34;0.60;99.90
18067;DHT22;9158;51.528;7.192;2022-12-11T03:14:07;0.60;99.90
18067;DHT22;9158;51.528;7.192;2022-12-11T03:14:41;0.60;99.90
18067;DHT22;9158;51.528;7.192;2022-12-11T03:15:15;0.60;99.90
18067;DHT22;9158;51.528;7.192;2022-12-11T03:15:55;0.50;99.90
18067;DHT22;9158;51.528;7.192;2022-12-11T03:16:34;0.50;99.90
18067;DHT22;9158;51.528;7.192;2022-12-11T03:17:11;0.50;99.90
18067;DHT22;9158;51.528;7.192;2022-12-11T03:17:51;0.50;99.90
18067;DHT22;9158;51.528;7.192;2022-12-11T03:18:29;0.50;99.90
18067;DHT22;9158;51.528;7.192;2022-12-11T03:19:10;0.50;99.90
18067;DHT22;9158;51.528;7.192;2022-12-11T03:19:48;0.50;99.90
18067;DHT22;9158;51.528;7.192;2022-12-11T03:20:27;0.50;99.90
18067;DHT22;9158;51.528;7.192;2022-12-11T03:21:04;0.50;99.90
18067;DHT22;9158;51.528;7.192;2022-12-11T03:21:39;0.60;99.90
18067;DHT22;9158;51.528;7.192;2022-12-11T03:22:17;0.60;99.90
18067;DHT22;9158;51.528;7.192;2022-12-11T03:22:55;0.60;99.90
18067;DHT22;9158;51.528;7.192;2022-12-11T03:23:31;0.60;99.90
18067;DHT22;9158;51.528;7.192;2022-12-11T03:24:07;0.60;99.90
18067;DHT22;9158;51.528;7.192;2022-12-11T03:24:44;0.70;99.90
18067;DHT22;9158;51.528;7.192;2022-12-11T03:25:20;0.70;99.90
18067;DHT22;9158;51.528;7.192;2022-12-11T03:25:54;0.70;99.90
18067;DHT22;9158;51.528;7.192;2022-12-11T03:26:27;0.70;99.90
18067;DHT22;9158;51.528;7.192;2022-12-11T03:27:06;0.60;99.90
18067;DHT22;9158;51.528;7.192;2022-12-11T03:27:46;0.60;99.90
18067;DHT22;9158;51.528;7.192;2022-12-11T03:28:22;0.60;99.90
18067;DHT22;9158;51.528;7.192;2022-12-11T03:28:57;0.60;99.90
18067;DHT22;9158;51.528;7.192;2022-12-11T03:29:35;0.60;99.90
18067;DHT22;9158;51.528;7.192;2022-12-11T03:30:10;0.60;99.90
18067;DHT22;9158;51.528;7.192;2022-12-11T03:30:44;0.70;99.90
18067;DHT22;9158;51.528;7.192;2022-12-11T03:31:20;0.70;99.90
18067;DHT22;9158;51.528;7.192;2022-12-11T03:31:54;0.70;99.90
18067;DHT22;9158;51.528;7.192;2022-12-11T03:32:30;0.70;99.90
18067;DHT22;9158;51.528;7.192;2022-12-11T03:33:08;0.70;99.90
18067;DHT22;9158;51.528;7.192;2022-12-11T03:33:42;0.70;99.90
18067;DHT22;9158;51.528;7.192;2022-12-11T03:34:19;0.70;99.90
18067;DHT22;9158;51.528;7.192;2022-12-11T03:34:54;0.70;99.90
18067;DHT22;9158;51.528;7.192;2022-12-11T03:35:29;0.70;99.90
18067;DHT22;9158;51.528;7.192;2022-12-11T03:36:06;0.70;99.90
18067;DHT22;9158;51.528;7.192;2022-12-11T03:36:39;0.70;99.90
18067;DHT22;9158;51.528;7.192;2022-12-11T03:37:12;0.70;99.90
18067;DHT22;9158;51.528;7.192;2022-12-11T03:37:47;0.60;99.90
18067;DHT22;9158;51.528;7.192;2022-12-11T03:38:23;0.60;99.90
18067;DHT22;9158;51.528;7.192;2022-12-11T03:38:58;0.60;99.90
18067;DHT22;9158;51.528;7.192;2022-12-11T03:39:32;0.70;99.90
18067;DHT22;9158;51.528;7.192;2022-12-11T03:40:09;0.70;99.90
18067;DHT22;9158;51.528;7.192;2022-12-11T03:40:43;0.60;99.90
18067;DHT22;9158;51.528;7.192;2022-12-11T03:41:18;0.60;99.90
18067;DHT22;9158;51.528;7.192;2022-12-11T03:41:52;0.60;99.90